sensor_id;sensor_type;location;lat;lon;timestamp;temperature;humidity
13052;DHT22;6592;47.484;9.726;2022-11-15T00:01:00;8.40;99.90
13052;DHT22;6592;47.484;9.726;2022-11-15T00:03:28;8.30;99.90
13052;DHT22;6592;47.484;9.726;2022-11-15T00:06:00;8.30;99.90
13052;DHT22;6592;47.484;9.726;2022-11-15T00:08:31;8.20;99.90
13052;DHT22;6592;47.484;9.726;2022-11-15T00:11:00;8.20;99.90
13052;DHT22;6592;47.484;9.726;2022-11-15T00:13:28;8.20;99.90
13052;DHT22;6592;47.484;9.726;2022-11-15T00:15:57;8.20;99.90
13052;DHT22;6592;47.484;9.726;2022-11-15T00:18:25;8.10;99.90
13052;DHT22;6592;47.484;9.726;2022-11-15T00:20:53;8.10;99.90
13052;DHT22;6592;47.484;9.726;2022-11-15T00:23:21;8.00;99.90
13052;DHT22;6592;47.484;9.726;2022-11-15T00:25:56;8.00;99.90
13052;DHT22;6592;47.484;9.726;2022-11-15T00:28:25;8.00;99.90
13052;DHT22;6592;47.484;9.726;2022-11-15T00:30:53;8.10;99.90
13052;DHT22;6592;47.484;9.726;2022-11-15T00:33:21;8.10;99.90
13052;DHT22;6592;47.484;9.726;2022-11-15T00:35:49;8.10;99.90
13052;DHT22;6592;47.484;9.726;2022-11-15T00:38:17;8.00;99.90
13052;DHT22;6592;47.484;9.726;2022-11-15T00:40:45;8.10;99.90
13052;DHT22;6592;47.484;9.726;2022-11-15T00:43:14;8.20;99.90
13052;DHT22;6592;47.484;9.726;2022-11-15T00:45:42;8.10;99.90
13052;DHT22;6592;47.484;9.726;2022-11-15T00:48:10;7.80;99.90
13052;DHT22;6592;47.484;9.726;2022-11-15T00:50:39;8.00;99.90
13052;DHT22;6592;47.484;9.726;2022-11-15T00:53:07;8.00;99.90
13052;DHT22;6592;47.484;9.726;2022-11-15T00:55:35;8.00;99.90
13052;DHT22;6592;47.484;9.726;2022-11-15T00:58:03;7.90;99.90
13052;DHT22;6592;47.484;9.726;2022-11-15T01:00:32;7.90;99.90
13052;DHT22;6592;47.484;9.726;2022-11-15T01:03:00;7.90;99.90
13052;DHT22;6592;47.484;9.726;2022-11-15T01:05:28;7.90;99.90
13052;DHT22;6592;47.484;9.726;2022-11-15T01:07:56;8.00;99.90
13052;DHT22;6592;47.484;9.726;2022-11-15T01:10:24;8.10;99.90
13052;DHT22;6592;47.484;9.726;2022-11-15T01:12:52;8.10;99.90
13052;DHT22;6592;47.484;9.726;2022-11-15T01:15:20;8.10;99.90
13052;DHT22;6592;47.484;9.726;2022-11-15T01:17:50;8.10;99.90
13052;DHT22;6592;47.484;9.726;2022-11-15T01:20:18;8.00;99.90
13052;DHT22;6592;47.484;9.726;2022-11-15T01:22:46;8.00;99.90
13052;DHT22;6592;47.484;9.726;2022-11-15T01:25:14;7.90;99.90
13052;DHT22;6592;47.484;9.726;2022-11-15T01:27:42;7.80;99.90
13052;DHT22;6592;47.484;9.726;2022-11-15T01:30:10;7.70;99.90
13052;DHT22;6592;47.484;9.726;2022-11-15T01:32:38;7.70;99.90
13052;DHT22;6592;47.484;9.726;2022-11-15T01:35:08;7.70;99.90
13052;DHT22;6592;47.484;9.726;2022-11-15T01:37:36;7.70;99.90
13052;DHT22;6592;47.484;9.726;2022-11-15T01:40:04;7.50;99.90
13052;DHT22;6592;47.484;9.726;2022-11-15T01:42:32;7.70;99.90
13052;DHT22;6592;47.484;9.726;2022-11-15T01:45:00;7.70;99.90
13052;DHT22;6592;47.484;9.726;2022-11-15T01:47:29;7.60;99.90
13052;DHT22;6592;47.484;9.726;2022-11-15T01:49:59;7.60;99.90
13052;DHT22;6592;47.484;9.726;2022-11-15T01:52:30;7.60;99.90
13052;DHT22;6592;47.484;9.726;2022-11-15T01:55:00;7.60;99.90
13052;DHT22;6592;47.484;9.726;2022-11-15T01:57:29;7.50;99.90
13052;DHT22;6592;47.484;9.726;2022-11-15T01:59:57;7.50;99.90
13052;DHT22;6592;47.484;9.726;2022-11-15T02:02:28;7.50;99.90
13052;DHT22;6592;47.484;9.726;2022-11-15T02:04:56;7.50;99.90
13052;DHT22;6592;47.484;9.726;2022-11-15T02:07:24;7.40;99.90
13052;DHT22;6592;47.484;9.726;2022-11-15T02:09:53;7.40;99.90
13052;DHT22;6592;47.484;9.726;2022-11-15T02:12:22;7.40;99.90
13052;DHT22;6592;47.484;9.726;2022-11-15T02:14:52;7.30;99.90
13052;DHT22;6592;47.484;9.726;2022-11-15T02:17:28;7.20;99.90
13052;DHT22;6592;47.484;9.726;2022-11-15T02:22:46;7.10;99.90
13052;DHT22;6592;47.484;9.726;2022-11-15T02:25:25;7.10;99.90
13052;DHT22;6592;47.484;9.726;2022-11-15T02:30:45;7.00;99.90
13052;DHT22;6592;47.484;9.726;2022-11-15T02:33:18;6.90;99.90
13052;DHT22;6592;47.484;9.726;2022-11-15T02:35:52;6.90;99.90
13052;DHT22;6592;47.484;9.726;2022-11-15T02:38:26;6.90;99.90
13052;DHT22;6592;47.484;9.726;2022-11-15T02:40:58;6.90;99.90
13052;DHT22;6592;47.484;9.726;2022-11-15T02:43:28;6.80;99.90
13052;DHT22;6592;47.484;9.726;2022-11-15T02:46:17;6.70;99.90
13052;DHT22;6592;47.484;9.726;2022-11-15T02:48:47;6.60;99.90
13052;DHT22;6592;47.484;9.726;2022-11-15T02:51:16;6.60;99.90
13052;DHT22;6592;47.484;9.726;2022-11-15T02:53:44;6.50;99.90
13052;DHT22;6592;47.484;9.726;2022-11-15T02:56:12;6.40;99.90
13052;DHT22;6592;47.484;9.726;2022-11-15T02:58:47;6.40;99.90
13052;DHT22;6592;47.484;9.726;2022-11-15T03:01:20;6.30;99.90
13052;DHT22;6592;47.484;9.726;2022-11-15T03:03:56;6.30;99.90
13052;DHT22;6592;47.484;9.726;2022-11-15T03:06:27;6.30;99.90
13052;DHT22;6592;47.484;9.726;2022-11-15T03:09:02;6.20;99.90
13052;DHT22;6592;47.484;9.726;2022-11-15T03:11:32;6.20;99.90
13052;DHT22;6592;47.484;9.726;2022-11-15T03:14:02;6.10;99.90
13052;DHT22;6592;47.484;9.726;2022-11-15T03:16:36;6.10;99.90
13052;DHT22;6592;47.484;9.726;2022-11-15T03:19:06;6.10;99.90
13052;DHT22;6592;47.484;9.726;2022-11-15T03:21:34;6.10;99.90
13052;DHT22;6592;47.484;9.726;2022-11-15T03:24:05;6.00;99.90
13052;DHT22;6592;47.484;9.726;2022-11-15T03:26:34;6.00;99.90
13052;DHT22;6592;47.484;9.726;2022-11-15T03:29:03;5.90;99.90
13052;DHT22;6592;47.484;9.726;2022-11-15T03:31:33;5.80;99.90
13052;DHT22;6592;47.484;9.726;2022-11-15T03:34:20;5.80;99.90
13052;DHT22;6592;47.484;9.726;2022-11-15T03:36:50;5.70;99.90
13052;DHT22;6592;47.484;9.726;2022-11-15T03:39:19;5.70;99.90
13052;DHT22;6592;47.484;9.726;2022-11-15T03:41:48;5.70;99.90
13052;DHT22;6592;47.484;9.726;2022-11-15T03:44:18;5.70;99.90
13052;DHT22;6592;47.484;9.726;2022-11-15T03:46:50;5.70;99.90
13052;DHT22;6592;47.484;9.726;2022-11-15T03:49:24;5.70;99.90
13052;DHT22;6592;47.484;9.726;2022-11-15T03:51:52;5.50;99.90
13052;DHT22;6592;47.484;9.726;2022-11-15T03:54:20;5.60;99.90
13052;DHT22;6592;47.484;9.726;2022-11-15T03:56:48;5.60;99.90
13052;DHT22;6592;47.484;9.726;2022-11-15T03:59:16;5.60;99.90
13052;DHT22;6592;47.484;9.726;2022-11-15T04:01:44;5.60;99.90
13052;DHT22;6592;47.484;9.726;2022-11-15T04:04:13;5.50;99.90
13052;DHT22;6592;47.484;9.726;2022-11-15T04:06:42;5.50;99.90
13052;DHT22;6592;47.484;9.726;2022-11-15T04:09:10;5.40;99.90
13052;DHT22;6592;47.484;9.726;2022-11-15T04:11:38;5.40;99.90
13052;DHT22;6592;47.484;9.726;2022-11-15T04:14:06;5.40;99.90
13052;DHT22;6592;47.484;9.726;2022-11-15T04:16:34;5.30;99.90
13052;DHT22;6592;47.484;9.726;2022-11-15T04:19:09;5.30;99.90
13052;DHT22;6592;47.484;9.726;2022-11-15T04:21:56;5.30;99.90
13052;DHT22;6592;47.484;9.726;2022-11-15T04:24:41;5.20;99.90
13052;DHT22;6592;47.484;9.726;2022-11-15T04:27:10;5.20;99.90
13052;DHT22;6592;47.484;9.726;2022-11-15T04:29:39;5.20;99.90
13052;DHT22;6592;47.484;9.726;2022-11-15T04:32:07;5.20;99.90
13052;DHT22;6592;47.484;9.726;2022-11-15T04:34:35;5.20;99.90
13052;DHT22;6592;47.484;9.726;2022-11-15T04:37:06;5.10;99.90
13052;DHT22;6592;47.484;9.726;2022-11-15T04:39:39;5.10;99.90
13052;DHT22;6592;47.484;9.726;2022-11-15T04:42:07;5.10;99.90
13052;DHT22;6592;47.484;9.726;2022-11-15T04:44:35;5.10;99.90
13052;DHT22;6592;47.484;9.726;2022-11-15T04:47:03;5.10;99.90
13052;DHT22;6592;47.484;9.726;2022-11-15T04:49:32;5.10;99.90
13052;DHT22;6592;47.484;9.726;2022-11-15T04:52:01;5.00;99.90
13052;DHT22;6592;47.484;9.726;2022-11-15T04:54:30;5.00;99.90
13052;DHT22;6592;47.484;9.726;2022-11-15T04:56:59;5.10;99.90
13052;DHT22;6592;47.484;9.726;2022-11-15T04:59:27;4.80;99.90
13052;DHT22;6592;47.484;9.726;2022-11-15T05:01:55;5.00;99.90
13052;DHT22;6592;47.484;9.726;2022-11-15T05:04:22;5.00;99.90
13052;DHT22;6592;47.484;9.726;2022-11-15T05:06:50;5.00;99.90
13052;DHT22;6592;47.484;9.726;2022-11-15T05:09:19;5.00;99.90
13052;DHT22;6592;47.484;9.726;2022-11-15T05:11:48;5.00;99.90
13052;DHT22;6592;47.484;9.726;2022-11-15T05:14:16;5.00;99.90
13052;DHT22;6592;47.484;9.726;2022-11-15T05:16:44;4.90;99.90
13052;DHT22;6592;47.484;9.726;2022-11-15T05:19:12;4.90;99.90
13052;DHT22;6592;47.484;9.726;2022-11-15T05:21:41;5.00;99.90
13052;DHT22;6592;47.484;9.726;2022-11-15T05:24:09;5.00;99.90
13052;DHT22;6592;47.484;9.726;2022-11-15T05:26:37;5.00;99.90
13052;DHT22;6592;47.484;9.726;2022-11-15T05:29:08;5.10;99.90
13052;DHT22;6592;47.484;9.726;2022-11-15T05:31:38;5.10;99.90
13052;DHT22;6592;47.484;9.726;2022-11-15T05:34:06;5.10;99.90
13052;DHT22;6592;47.484;9.726;2022-11-15T05:36:35;5.20;99.90
13052;DHT22;6592;47.484;9.726;2022-11-15T05:39:05;5.10;99.90
13052;DHT22;6592;47.484;9.726;2022-11-15T05:41:36;5.10;99.90
13052;DHT22;6592;47.484;9.726;2022-11-15T05:44:05;5.10;99.90
13052;DHT22;6592;47.484;9.726;2022-11-15T05:46:35;5.10;99.90
13052;DHT22;6592;47.484;9.726;2022-11-15T05:49:03;5.10;99.90
13052;DHT22;6592;47.484;9.726;2022-11-15T05:51:33;5.10;99.90
13052;DHT22;6592;47.484;9.726;2022-11-15T05:54:01;5.10;99.90
13052;DHT22;6592;47.484;9.726;2022-11-15T05:56:30;5.10;99.90
13052;DHT22;6592;47.484;9.726;2022-11-15T05:58:58;5.10;99.90
13052;DHT22;6592;47.484;9.726;2022-11-15T06:01:26;5.10;99.90
13052;DHT22;6592;47.484;9.726;2022-11-15T06:03:56;5.10;99.90
13052;DHT22;6592;47.484;9.726;2022-11-15T06:06:24;5.10;99.90
13052;DHT22;6592;47.484;9.726;2022-11-15T06:08:52;5.00;99.90
13052;DHT22;6592;47.484;9.726;2022-11-15T06:11:20;4.50;99.90
13052;DHT22;6592;47.484;9.726;2022-11-15T06:13:48;5.00;99.90
13052;DHT22;6592;47.484;9.726;2022-11-15T06:16:16;5.00;99.90
13052;DHT22;6592;47.484;9.726;2022-11-15T06:18:44;5.10;99.90
13052;DHT22;6592;47.484;9.726;2022-11-15T06:21:13;5.10;99.90
13052;DHT22;6592;47.484;9.726;2022-11-15T06:23:41;5.10;99.90
13052;DHT22;6592;47.484;9.726;2022-11-15T06:26:09;5.10;99.90
13052;DHT22;6592;47.484;9.726;2022-11-15T06:28:37;5.10;99.90
13052;DHT22;6592;47.484;9.726;2022-11-15T06:31:05;5.10;99.90
13052;DHT22;6592;47.484;9.726;2022-11-15T06:33:34;5.10;99.90
13052;DHT22;6592;47.484;9.726;2022-11-15T06:36:02;5.00;99.90
13052;DHT22;6592;47.484;9.726;2022-11-15T06:38:31;5.00;99.90
13052;DHT22;6592;47.484;9.726;2022-11-15T06:41:03;4.90;99.90
13052;DHT22;6592;47.484;9.726;2022-11-15T06:43:31;5.10;99.90
13052;DHT22;6592;47.484;9.726;2022-11-15T06:46:00;4.80;99.90
13052;DHT22;6592;47.484;9.726;2022-11-15T06:48:28;5.10;99.90
13052;DHT22;6592;47.484;9.726;2022-11-15T06:50:57;5.20;99.90
13052;DHT22;6592;47.484;9.726;2022-11-15T06:53:25;5.20;99.90
13052;DHT22;6592;47.484;9.726;2022-11-15T06:55:56;5.30;99.90
13052;DHT22;6592;47.484;9.726;2022-11-15T06:58:25;5.30;99.90
13052;DHT22;6592;47.484;9.726;2022-11-15T07:00:54;5.40;99.90
13052;DHT22;6592;47.484;9.726;2022-11-15T07:03:25;5.40;99.90
13052;DHT22;6592;47.484;9.726;2022-11-15T07:05:55;6.00;99.90
13052;DHT22;6592;47.484;9.726;2022-11-15T07:08:31;7.20;99.90
13052;DHT22;6592;47.484;9.726;2022-11-15T07:11:02;8.40;99.90
13052;DHT22;6592;47.484;9.726;2022-11-15T07:13:31;9.50;99.90
13052;DHT22;6592;47.484;9.726;2022-11-15T07:16:02;10.50;99.90
13052;DHT22;6592;47.484;9.726;2022-11-15T07:18:30;11.30;99.90
13052;DHT22;6592;47.484;9.726;2022-11-15T07:21:00;11.70;99.90
13052;DHT22;6592;47.484;9.726;2022-11-15T07:23:28;12.10;99.90
13052;DHT22;6592;47.484;9.726;2022-11-15T07:25:56;12.40;99.90
13052;DHT22;6592;47.484;9.726;2022-11-15T07:28:26;12.50;99.90
13052;DHT22;6592;47.484;9.726;2022-11-15T07:30:54;12.80;99.90
13052;DHT22;6592;47.484;9.726;2022-11-15T07:33:22;13.50;99.90
13052;DHT22;6592;47.484;9.726;2022-11-15T07:35:51;14.20;99.90
13052;DHT22;6592;47.484;9.726;2022-11-15T07:38:19;15.10;99.90
13052;DHT22;6592;47.484;9.726;2022-11-15T07:40:47;16.00;99.90
13052;DHT22;6592;47.484;9.726;2022-11-15T07:43:15;17.00;99.90
13052;DHT22;6592;47.484;9.726;2022-11-15T07:45:45;17.80;99.90
13052;DHT22;6592;47.484;9.726;2022-11-15T07:48:13;18.50;99.90
13052;DHT22;6592;47.484;9.726;2022-11-15T07:50:41;18.90;99.90
13052;DHT22;6592;47.484;9.726;2022-11-15T07:53:10;18.90;99.90
13052;DHT22;6592;47.484;9.726;2022-11-15T07:55:39;19.20;99.90
13052;DHT22;6592;47.484;9.726;2022-11-15T07:58:07;19.90;99.90
13052;DHT22;6592;47.484;9.726;2022-11-15T08:00:36;20.30;99.90
13052;DHT22;6592;47.484;9.726;2022-11-15T08:03:06;20.80;99.90
13052;DHT22;6592;47.484;9.726;2022-11-15T08:05:35;21.10;99.90
13052;DHT22;6592;47.484;9.726;2022-11-15T08:08:03;20.80;98.30
13052;DHT22;6592;47.484;9.726;2022-11-15T08:10:32;20.90;96.30
13052;DHT22;6592;47.484;9.726;2022-11-15T08:13:07;20.80;95.60
13052;DHT22;6592;47.484;9.726;2022-11-15T08:15:35;20.10;95.70
13052;DHT22;6592;47.484;9.726;2022-11-15T08:18:05;18.90;96.70
13052;DHT22;6592;47.484;9.726;2022-11-15T08:20:34;17.90;98.00
13052;DHT22;6592;47.484;9.726;2022-11-15T08:23:03;16.80;99.20
13052;DHT22;6592;47.484;9.726;2022-11-15T08:25:32;16.00;99.90
13052;DHT22;6592;47.484;9.726;2022-11-15T08:28:00;16.00;99.90
13052;DHT22;6592;47.484;9.726;2022-11-15T08:30:29;16.10;99.90
13052;DHT22;6592;47.484;9.726;2022-11-15T08:32:57;16.00;99.90
13052;DHT22;6592;47.484;9.726;2022-11-15T08:35:26;16.00;99.90
13052;DHT22;6592;47.484;9.726;2022-11-15T08:37:56;16.00;99.90
13052;DHT22;6592;47.484;9.726;2022-11-15T08:40:24;16.60;99.90
13052;DHT22;6592;47.484;9.726;2022-11-15T08:42:53;17.60;99.90
13052;DHT22;6592;47.484;9.726;2022-11-15T08:45:21;18.60;99.90
13052;DHT22;6592;47.484;9.726;2022-11-15T08:47:49;19.30;99.70
13052;DHT22;6592;47.484;9.726;2022-11-15T08:50:20;20.40;98.90
13052;DHT22;6592;47.484;9.726;2022-11-15T08:52:49;21.40;97.70
13052;DHT22;6592;47.484;9.726;2022-11-15T08:55:18;22.40;96.10
13052;DHT22;6592;47.484;9.726;2022-11-15T08:57:50;23.20;94.00
13052;DHT22;6592;47.484;9.726;2022-11-15T09:00:18;23.50;92.70
13052;DHT22;6592;47.484;9.726;2022-11-15T09:02:47;23.70;92.10
13052;DHT22;6592;47.484;9.726;2022-11-15T09:05:15;24.00;91.40
13052;DHT22;6592;47.484;9.726;2022-11-15T09:07:45;24.30;90.70
13052;DHT22;6592;47.484;9.726;2022-11-15T09:10:13;24.40;91.40
13052;DHT22;6592;47.484;9.726;2022-11-15T09:12:42;24.70;88.80
13052;DHT22;6592;47.484;9.726;2022-11-15T09:15:10;25.60;88.90
13052;DHT22;6592;47.484;9.726;2022-11-15T09:17:38;26.20;84.60
13052;DHT22;6592;47.484;9.726;2022-11-15T09:20:07;26.80;84.00
13052;DHT22;6592;47.484;9.726;2022-11-15T09:22:35;27.00;78.30
13052;DHT22;6592;47.484;9.726;2022-11-15T09:25:05;27.70;76.20
13052;DHT22;6592;47.484;9.726;2022-11-15T09:27:36;28.20;73.90
13052;DHT22;6592;47.484;9.726;2022-11-15T09:30:06;28.60;71.40
13052;DHT22;6592;47.484;9.726;2022-11-15T09:32:34;29.20;68.60
13052;DHT22;6592;47.484;9.726;2022-11-15T09:35:05;29.90;67.10
13052;DHT22;6592;47.484;9.726;2022-11-15T09:37:33;30.50;62.50
13052;DHT22;6592;47.484;9.726;2022-11-15T09:40:01;30.70;60.00
13052;DHT22;6592;47.484;9.726;2022-11-15T09:42:36;31.20;58.90
13052;DHT22;6592;47.484;9.726;2022-11-15T09:45:12;31.20;57.10
13052;DHT22;6592;47.484;9.726;2022-11-15T09:47:49;31.20;57.00
13052;DHT22;6592;47.484;9.726;2022-11-15T09:50:31;31.30;55.10
13052;DHT22;6592;47.484;9.726;2022-11-15T09:53:00;31.30;53.70
13052;DHT22;6592;47.484;9.726;2022-11-15T09:55:30;30.80;53.60
13052;DHT22;6592;47.484;9.726;2022-11-15T09:58:00;31.00;54.40
13052;DHT22;6592;47.484;9.726;2022-11-15T10:00:33;31.30;53.10
13052;DHT22;6592;47.484;9.726;2022-11-15T10:03:20;31.20;52.10
13052;DHT22;6592;47.484;9.726;2022-11-15T10:05:50;31.00;51.40
13052;DHT22;6592;47.484;9.726;2022-11-15T10:08:25;31.30;52.40
13052;DHT22;6592;47.484;9.726;2022-11-15T10:10:57;31.10;52.10
13052;DHT22;6592;47.484;9.726;2022-11-15T10:13:46;30.70;53.20
13052;DHT22;6592;47.484;9.726;2022-11-15T10:16:37;30.30;54.20
13052;DHT22;6592;47.484;9.726;2022-11-15T10:19:10;30.00;54.20
13052;DHT22;6592;47.484;9.726;2022-11-15T10:21:40;30.80;54.20
13052;DHT22;6592;47.484;9.726;2022-11-15T10:24:13;30.80;53.80
13052;DHT22;6592;47.484;9.726;2022-11-15T10:26:45;30.80;53.30
13052;DHT22;6592;47.484;9.726;2022-11-15T10:29:17;31.70;53.40
13052;DHT22;6592;47.484;9.726;2022-11-15T10:31:53;32.50;51.90
13052;DHT22;6592;47.484;9.726;2022-11-15T10:34:22;32.80;52.10
13052;DHT22;6592;47.484;9.726;2022-11-15T10:36:54;32.30;51.40
13052;DHT22;6592;47.484;9.726;2022-11-15T10:39:22;32.60;51.40
13052;DHT22;6592;47.484;9.726;2022-11-15T10:41:50;32.80;50.00
13052;DHT22;6592;47.484;9.726;2022-11-15T10:44:23;33.00;49.20
13052;DHT22;6592;47.484;9.726;2022-11-15T10:47:06;32.80;49.60
13052;DHT22;6592;47.484;9.726;2022-11-15T10:49:34;32.50;49.70
13052;DHT22;6592;47.484;9.726;2022-11-15T10:52:03;32.50;49.30
13052;DHT22;6592;47.484;9.726;2022-11-15T10:54:33;32.30;50.10
13052;DHT22;6592;47.484;9.726;2022-11-15T10:57:05;31.80;50.60
13052;DHT22;6592;47.484;9.726;2022-11-15T10:59:33;31.30;50.30
13052;DHT22;6592;47.484;9.726;2022-11-15T11:04:52;31.70;50.90
13052;DHT22;6592;47.484;9.726;2022-11-15T11:07:20;31.50;50.80
13052;DHT22;6592;47.484;9.726;2022-11-15T11:09:56;31.40;50.70
13052;DHT22;6592;47.484;9.726;2022-11-15T11:12:27;31.90;50.80
13052;DHT22;6592;47.484;9.726;2022-11-15T11:14:55;31.80;51.00
13052;DHT22;6592;47.484;9.726;2022-11-15T11:17:26;31.60;51.10
13052;DHT22;6592;47.484;9.726;2022-11-15T11:20:02;31.20;51.20
13052;DHT22;6592;47.484;9.726;2022-11-15T11:22:34;31.20;51.80
13052;DHT22;6592;47.484;9.726;2022-11-15T11:25:11;31.60;51.90
13052;DHT22;6592;47.484;9.726;2022-11-15T11:27:43;31.60;52.20
13052;DHT22;6592;47.484;9.726;2022-11-15T11:30:14;31.80;52.10
13052;DHT22;6592;47.484;9.726;2022-11-15T11:35:37;32.10;50.80
13052;DHT22;6592;47.484;9.726;2022-11-15T11:38:15;31.30;51.50
13052;DHT22;6592;47.484;9.726;2022-11-15T11:40:50;30.30;52.30
13052;DHT22;6592;47.484;9.726;2022-11-15T11:43:22;29.10;53.50
13052;DHT22;6592;47.484;9.726;2022-11-15T11:46:13;27.90;55.40
13052;DHT22;6592;47.484;9.726;2022-11-15T11:48:44;26.80;56.90
13052;DHT22;6592;47.484;9.726;2022-11-15T11:51:15;25.20;59.50
13052;DHT22;6592;47.484;9.726;2022-11-15T11:53:46;24.00;62.30
13052;DHT22;6592;47.484;9.726;2022-11-15T11:56:18;22.90;65.80
13052;DHT22;6592;47.484;9.726;2022-11-15T11:58:48;22.10;68.20
13052;DHT22;6592;47.484;9.726;2022-11-15T12:01:20;21.70;69.60
13052;DHT22;6592;47.484;9.726;2022-11-15T12:03:51;21.70;70.50
13052;DHT22;6592;47.484;9.726;2022-11-15T12:06:23;21.50;71.10
13052;DHT22;6592;47.484;9.726;2022-11-15T12:08:59;21.30;72.20
13052;DHT22;6592;47.484;9.726;2022-11-15T12:11:29;21.00;73.30
13052;DHT22;6592;47.484;9.726;2022-11-15T12:13:59;20.60;74.60
13052;DHT22;6592;47.484;9.726;2022-11-15T12:16:29;20.10;76.70
13052;DHT22;6592;47.484;9.726;2022-11-15T12:18:59;20.00;77.70
13052;DHT22;6592;47.484;9.726;2022-11-15T12:21:32;19.60;79.60
13052;DHT22;6592;47.484;9.726;2022-11-15T12:24:04;19.60;80.70
13052;DHT22;6592;47.484;9.726;2022-11-15T12:26:35;19.30;81.50
13052;DHT22;6592;47.484;9.726;2022-11-15T12:29:05;19.00;83.10
13052;DHT22;6592;47.484;9.726;2022-11-15T12:31:37;18.90;83.50
13052;DHT22;6592;47.484;9.726;2022-11-15T12:34:13;18.60;85.20
13052;DHT22;6592;47.484;9.726;2022-11-15T12:36:44;18.30;84.90
13052;DHT22;6592;47.484;9.726;2022-11-15T12:39:12;17.90;88.20
13052;DHT22;6592;47.484;9.726;2022-11-15T12:41:41;17.70;89.80
13052;DHT22;6592;47.484;9.726;2022-11-15T12:44:10;17.40;89.70
13052;DHT22;6592;47.484;9.726;2022-11-15T12:49:43;17.00;91.30
13052;DHT22;6592;47.484;9.726;2022-11-15T12:52:13;16.80;92.60
13052;DHT22;6592;47.484;9.726;2022-11-15T12:54:55;16.70;92.20
13052;DHT22;6592;47.484;9.726;2022-11-15T12:57:30;16.50;93.60
13052;DHT22;6592;47.484;9.726;2022-11-15T12:59:59;16.30;94.50
13052;DHT22;6592;47.484;9.726;2022-11-15T13:02:29;16.20;94.90
13052;DHT22;6592;47.484;9.726;2022-11-15T13:07:57;15.90;96.20
13052;DHT22;6592;47.484;9.726;2022-11-15T13:10:29;15.90;97.80
13052;DHT22;6592;47.484;9.726;2022-11-15T13:12:58;15.80;97.60
13052;DHT22;6592;47.484;9.726;2022-11-15T13:15:35;15.70;98.20
13052;DHT22;6592;47.484;9.726;2022-11-15T13:20:56;15.60;99.30
13052;DHT22;6592;47.484;9.726;2022-11-15T13:23:29;15.50;99.90
13052;DHT22;6592;47.484;9.726;2022-11-15T13:26:05;15.40;99.90
13052;DHT22;6592;47.484;9.726;2022-11-15T13:28:37;15.30;99.90
13052;DHT22;6592;47.484;9.726;2022-11-15T13:31:25;15.20;99.90
13052;DHT22;6592;47.484;9.726;2022-11-15T13:33:55;15.10;99.90
13052;DHT22;6592;47.484;9.726;2022-11-15T13:36:24;14.90;99.90
13052;DHT22;6592;47.484;9.726;2022-11-15T13:38:55;14.70;99.90
13052;DHT22;6592;47.484;9.726;2022-11-15T13:41:24;14.60;99.90
13052;DHT22;6592;47.484;9.726;2022-11-15T13:43:53;14.50;99.90
13052;DHT22;6592;47.484;9.726;2022-11-15T13:46:22;14.40;99.90
13052;DHT22;6592;47.484;9.726;2022-11-15T13:48:51;14.30;99.90
13052;DHT22;6592;47.484;9.726;2022-11-15T13:51:20;14.20;99.90
13052;DHT22;6592;47.484;9.726;2022-11-15T13:53:53;14.20;99.90
13052;DHT22;6592;47.484;9.726;2022-11-15T13:56:24;14.20;99.90
13052;DHT22;6592;47.484;9.726;2022-11-15T13:58:53;14.20;99.90
13052;DHT22;6592;47.484;9.726;2022-11-15T14:01:21;14.20;99.90
13052;DHT22;6592;47.484;9.726;2022-11-15T14:03:51;14.10;99.90
13052;DHT22;6592;47.484;9.726;2022-11-15T14:06:20;14.10;99.90
13052;DHT22;6592;47.484;9.726;2022-11-15T14:09:03;14.10;99.90
13052;DHT22;6592;47.484;9.726;2022-11-15T14:11:33;14.00;99.90
13052;DHT22;6592;47.484;9.726;2022-11-15T14:14:04;14.00;99.90
13052;DHT22;6592;47.484;9.726;2022-11-15T14:16:33;13.80;99.90
13052;DHT22;6592;47.484;9.726;2022-11-15T14:19:02;13.50;99.90
13052;DHT22;6592;47.484;9.726;2022-11-15T14:21:31;13.70;99.90
13052;DHT22;6592;47.484;9.726;2022-11-15T14:26:46;13.60;99.90
13052;DHT22;6592;47.484;9.726;2022-11-15T14:29:21;13.60;99.90
13052;DHT22;6592;47.484;9.726;2022-11-15T14:31:50;13.50;99.90
13052;DHT22;6592;47.484;9.726;2022-11-15T14:34:18;13.60;99.90
13052;DHT22;6592;47.484;9.726;2022-11-15T14:36:48;13.50;99.90
13052;DHT22;6592;47.484;9.726;2022-11-15T14:39:16;13.30;99.90
13052;DHT22;6592;47.484;9.726;2022-11-15T14:41:43;13.00;99.90
13052;DHT22;6592;47.484;9.726;2022-11-15T14:44:13;12.70;99.90
13052;DHT22;6592;47.484;9.726;2022-11-15T14:46:45;12.70;99.90
13052;DHT22;6592;47.484;9.726;2022-11-15T14:49:14;12.50;99.90
13052;DHT22;6592;47.484;9.726;2022-11-15T14:51:42;12.20;99.90
13052;DHT22;6592;47.484;9.726;2022-11-15T14:54:10;11.90;99.90
13052;DHT22;6592;47.484;9.726;2022-11-15T14:56:39;11.70;99.90
13052;DHT22;6592;47.484;9.726;2022-11-15T14:59:08;11.60;99.90
13052;DHT22;6592;47.484;9.726;2022-11-15T15:01:37;11.30;99.90
13052;DHT22;6592;47.484;9.726;2022-11-15T15:04:05;11.30;99.90
13052;DHT22;6592;47.484;9.726;2022-11-15T15:06:33;11.20;99.90
13052;DHT22;6592;47.484;9.726;2022-11-15T15:09:01;11.20;99.90
13052;DHT22;6592;47.484;9.726;2022-11-15T15:11:30;11.10;99.90
13052;DHT22;6592;47.484;9.726;2022-11-15T15:13:58;11.10;99.90
13052;DHT22;6592;47.484;9.726;2022-11-15T15:16:27;11.00;99.90
13052;DHT22;6592;47.484;9.726;2022-11-15T15:18:57;10.80;99.90
13052;DHT22;6592;47.484;9.726;2022-11-15T15:21:26;10.90;99.90
13052;DHT22;6592;47.484;9.726;2022-11-15T15:24:01;10.80;99.90
13052;DHT22;6592;47.484;9.726;2022-11-15T15:26:29;10.80;99.90
13052;DHT22;6592;47.484;9.726;2022-11-15T15:29:00;10.70;99.90
13052;DHT22;6592;47.484;9.726;2022-11-15T15:31:28;10.70;99.90
13052;DHT22;6592;47.484;9.726;2022-11-15T15:33:57;10.70;99.90
13052;DHT22;6592;47.484;9.726;2022-11-15T15:36:25;10.70;99.90
13052;DHT22;6592;47.484;9.726;2022-11-15T15:38:53;10.70;99.90
13052;DHT22;6592;47.484;9.726;2022-11-15T15:41:21;10.70;99.90
13052;DHT22;6592;47.484;9.726;2022-11-15T15:43:49;10.70;99.90
13052;DHT22;6592;47.484;9.726;2022-11-15T15:46:18;10.70;99.90
13052;DHT22;6592;47.484;9.726;2022-11-15T15:48:46;10.70;99.90
13052;DHT22;6592;47.484;9.726;2022-11-15T15:51:15;10.70;99.90
13052;DHT22;6592;47.484;9.726;2022-11-15T15:53:46;10.70;99.90
13052;DHT22;6592;47.484;9.726;2022-11-15T15:56:14;10.70;99.90
13052;DHT22;6592;47.484;9.726;2022-11-15T15:58:42;10.70;99.90
13052;DHT22;6592;47.484;9.726;2022-11-15T16:01:10;10.70;99.90
13052;DHT22;6592;47.484;9.726;2022-11-15T16:03:38;10.70;99.90
13052;DHT22;6592;47.484;9.726;2022-11-15T16:08:50;10.80;99.90
13052;DHT22;6592;47.484;9.726;2022-11-15T16:11:39;10.80;99.90
13052;DHT22;6592;47.484;9.726;2022-11-15T16:14:08;10.80;99.90
13052;DHT22;6592;47.484;9.726;2022-11-15T16:16:36;10.80;99.90
13052;DHT22;6592;47.484;9.726;2022-11-15T16:19:04;10.90;99.90
13052;DHT22;6592;47.484;9.726;2022-11-15T16:21:32;10.90;99.90
13052;DHT22;6592;47.484;9.726;2022-11-15T16:24:02;10.90;99.90
13052;DHT22;6592;47.484;9.726;2022-11-15T16:26:31;10.90;99.90
13052;DHT22;6592;47.484;9.726;2022-11-15T16:29:00;11.00;99.90
13052;DHT22;6592;47.484;9.726;2022-11-15T16:31:28;11.00;99.90
13052;DHT22;6592;47.484;9.726;2022-11-15T16:33:56;11.10;99.90
13052;DHT22;6592;47.484;9.726;2022-11-15T16:36:25;11.10;99.90